Observations for BRINDISI, Italy (LIBR)

LIBR 200620Z 31016KT CAVOK 15/10 Q1024  
LIBR 200550Z 31013KT CAVOK 15/10 Q1023  
LIBR 200520Z 31013KT CAVOK 14/10 Q1023  
LIBR 200450Z 31013KT CAVOK 14/10 Q1023  
LIBR 200420Z 31011KT CAVOK 14/09 Q1023  
LIBR 200350Z 31009KT CAVOK 13/09 Q1023  
LIBR 200320Z 31011KT CAVOK 14/09 Q1023  
LIBR 200250Z 31008KT CAVOK 13/09 Q1023  
LIBR 200220Z 30010KT CAVOK 13/09 Q1024  
LIBR 200150Z 31008KT CAVOK 13/10 Q1024  
LIBR 200120Z 29010KT CAVOK 13/10 Q1024  
LIBR 200050Z 30012KT CAVOK 13/11 Q1024  
LIBR 200020Z 30011KT CAVOK 14/12 Q1025  
LIBR 192350Z 29011KT CAVOK 14/12 Q1025  
LIBR 192320Z 30011KT CAVOK 13/10 Q1025  
LIBR 192250Z 30010KT CAVOK 13/10 Q1025  
LIBR 192220Z 29008KT CAVOK 13/11 Q1025  
LIBR 192150Z 30008KT CAVOK 13/11 Q1025  
LIBR 192120Z 29007KT CAVOK 12/11 Q1025  
LIBR 192050Z 29006KT CAVOK 13/12 Q1026  
LIBR 192020Z 30006KT CAVOK 14/12 Q1026  
LIBR 191950Z 31006KT CAVOK 14/12 Q1026  
LIBR 191920Z 32006KT CAVOK 14/12 Q1025 WS RWI13 
LIBR 191920Z 32006KT CAVOK 14/12 Q1025 RMK WS RWI13
LIBR 191850Z 31006KT CAVOK 14/11 Q1025 WS RWY13 
LIBR 191850Z 31006KT CAVOK 14/11 Q1025 RMK WS RWY13
LIBR 191820Z 31005KT CAVOK 14/11 Q1025  
LIBR 191750Z 32007KT CAVOK 15/11 Q1025  
LIBR 191720Z 31008KT CAVOK 15/12 Q1025  
LIBR 191650Z 32009KT CAVOK 16/12 Q1025  
LIBR 191620Z 31010KT CAVOK 16/12 Q1025  
LIBR 191550Z 31010KT CAVOK 17/12 Q1025  
LIBR 191520Z 32011KT CAVOK 17/12 Q1025  
LIBR 191450Z 32009KT CAVOK 17/10 Q1025  
LIBR 191420Z 35010KT CAVOK 17/10 Q1025  
LIBR 191350Z 36008KT CAVOK 17/10 Q1025  
LIBR 191320Z 01008KT CAVOK 17/10 Q1026  
LIBR 191250Z 36008KT CAVOK 17/11 Q1026  
LIBR 191220Z 36008KT CAVOK 17/11 Q1026  
LIBR 191150Z 36009KT CAVOK 17/11 Q1026  
LIBR 191120Z 35008KT CAVOK 18/11 Q1026  
LIBR 191050Z 01009KT CAVOK 17/10 Q1026  
LIBR 191020Z 36008KT CAVOK 17/11 Q1026  
LIBR 190950Z 01006KT 330V040 CAVOK 17/12 Q1026  
LIBR 190920Z 01005KT 330V060 CAVOK 17/12 Q1026  
LIBR 190850Z 02005KT CAVOK 17/12 Q1026  
LIBR 190820Z 01006KT CAVOK 17/12 Q1026  
LIBR 190750Z 35007KT 300V030 CAVOK 16/11 Q1026  
LIBR 190720Z 31010KT CAVOK 16/12 Q1026  
LIBR 190650Z 31010KT CAVOK 15/12 Q1025  
LIBR 190620Z 30010KT CAVOK 15/12 Q1025  
LIBR 190550Z 31006KT CAVOK 15/12 Q1025